Time;durP1;ratioP1;P1;durP2;ratioP2;P2;SDS_P1;SDS_P2;PMS_P1;PMS_P2;Temp;Humidity;BMP_temperature;BMP_pressure;BME280_temperature;BME280_humidity;BME280_pressure;Samples;Min_cycle;Max_cycle;Signal;HPM_P1;HPM_P2
2023/09/17 00:00:57;;;;;;;4.32;3.92;;;23.00;99.90;;;;;;5045097;28;20202;-58
2023/09/17 00:03:25;;;;;;;4.68;3.50;;;23.00;99.90;;;;;;5042581;28;20213;-60
2023/09/17 00:05:52;;;;;;;5.95;4.40;;;23.00;99.90;;;;;;5041413;28;20203;-60
2023/09/17 00:08:19;;;;;;;6.70;4.10;;;23.10;99.90;;;;;;5042621;28;20317;-61
2023/09/17 00:10:47;;;;;;;7.45;4.63;;;23.10;99.90;;;;;;5044732;28;20212;-58
2023/09/17 00:13:14;;;;;;;6.22;4.25;;;23.00;99.90;;;;;;5043779;28;20259;-59
2023/09/17 00:15:41;;;;;;;6.25;4.28;;;23.00;99.90;;;;;;5041382;28;20206;-60
2023/09/17 00:18:08;;;;;;;4.35;3.83;;;23.00;99.90;;;;;;5041272;28;20313;-61
2023/09/17 00:20:34;;;;;;;5.10;4.57;;;23.00;99.90;;;;;;5044690;28;20204;-58
2023/09/17 00:23:02;;;;;;;6.30;4.40;;;22.90;99.90;;;;;;5044657;28;20206;-59
2023/09/17 00:25:29;;;;;;;7.80;4.13;;;22.80;99.90;;;;;;5041961;28;20209;-60
2023/09/17 00:27:58;;;;;;;5.70;4.38;;;22.60;99.90;;;;;;5041172;28;21499;-60
2023/09/17 00:30:25;;;;;;;4.47;4.07;;;22.50;99.90;;;;;;5043054;28;20210;-59
2023/09/17 00:32:52;;;;;;;5.07;4.40;;;22.40;99.90;;;;;;5044183;28;20197;-59
2023/09/17 00:35:19;;;;;;;4.50;4.10;;;22.30;99.90;;;;;;5043056;28;20229;-59
2023/09/17 00:37:45;;;;;;;4.32;3.63;;;22.20;99.90;;;;;;5041065;28;20232;-59
2023/09/17 00:40:13;;;;;;;4.95;4.15;;;22.00;99.90;;;;;;5041029;28;20562;-58
2023/09/17 00:42:40;;;;;;;6.03;4.35;;;21.90;99.90;;;;;;5044298;28;20230;-60
2023/09/17 00:45:10;;;;;;;5.20;3.80;;;21.80;99.90;;;;;;5044051;28;20204;-59
2023/09/17 00:47:38;;;;;;;5.00;4.10;;;21.90;99.90;;;;;;5044209;28;20295;-59
2023/09/17 00:50:06;;;;;;;8.82;3.92;;;21.80;99.90;;;;;;5044447;28;20204;-59
2023/09/17 00:52:33;;;;;;;6.25;4.53;;;21.80;99.90;;;;;;5040896;28;20289;-59
2023/09/17 00:55:01;;;;;;;5.70;4.25;;;21.70;99.90;;;;;;5040579;28;20726;-59
2023/09/17 00:57:28;;;;;;;4.20;3.75;;;21.60;99.90;;;;;;5043064;28;20210;-59
2023/09/17 00:59:55;;;;;;;4.65;4.00;;;21.50;99.90;;;;;;5044120;28;20228;-59
2023/09/17 01:02:26;;;;;;;7.38;4.18;;;21.40;99.90;;;;;;5042347;28;20213;-60
2023/09/17 01:04:54;;;;;;;5.63;3.83;;;21.30;99.90;;;;;;5040632;28;20199;-60
2023/09/17 01:07:21;;;;;;;5.82;4.57;;;21.30;99.90;;;;;;5041721;28;20598;-60
2023/09/17 01:09:48;;;;;;;4.78;4.13;;;21.30;99.90;;;;;;5044056;28;20225;-60
2023/09/17 01:12:16;;;;;;;7.25;3.97;;;21.40;99.90;;;;;;5043285;28;20288;-61
2023/09/17 01:14:44;;;;;;;4.78;4.05;;;21.40;99.90;;;;;;5040156;28;20246;-60
2023/09/17 01:17:11;;;;;;;4.38;3.97;;;21.30;99.90;;;;;;5040555;28;20210;-60
2023/09/17 01:19:42;;;;;;;5.22;4.10;;;21.30;99.90;;;;;;5040690;28;20234;-61
2023/09/17 01:22:17;;;;;;;5.72;4.32;;;21.30;99.90;;;;;;5040863;28;20213;-63
2023/09/17 01:24:49;;;;;;;7.10;4.22;;;21.20;99.90;;;;;;5043380;28;20284;-59
2023/09/17 01:27:19;;;;;;;4.97;4.47;;;21.10;99.90;;;;;;5043136;28;20228;-59
2023/09/17 01:29:47;;;;;;;4.43;3.97;;;21.10;99.90;;;;;;5040063;28;20229;-59
2023/09/17 01:32:14;;;;;;;4.75;4.22;;;21.00;99.90;;;;;;5040375;28;20210;-58
2023/09/17 01:34:43;;;;;;;4.72;3.75;;;21.00;99.90;;;;;;5043114;28;20818;-59
2023/09/17 01:37:18;;;;;;;4.63;4.22;;;21.00;99.90;;;;;;5043337;28;20215;-59
2023/09/17 01:39:54;;;;;;;5.25;4.07;;;21.00;99.90;;;;;;5040016;28;20222;-59
2023/09/17 01:42:24;;;;;;;4.47;4.07;;;21.00;99.90;;;;;;5040795;28;20255;-59
2023/09/17 01:44:51;;;;;;;4.78;4.20;;;21.00;99.90;;;;;;5043280;28;20202;-59
2023/09/17 01:47:20;;;;;;;5.10;4.18;;;20.80;99.90;;;;;;5042341;28;20212;-59
2023/09/17 01:49:47;;;;;;;4.97;4.40;;;20.70;99.90;;;;;;5080177;22;20230;-58
2023/09/17 01:52:20;;;;;;;4.15;3.78;;;20.70;99.90;;;;;;5068180;28;20205;-57
2023/09/17 01:54:47;;;;;;;4.28;3.88;;;20.70;99.90;;;;;;5059375;28;20245;-57
2023/09/17 01:57:13;;;;;;;6.05;4.32;;;20.80;99.90;;;;;;5068116;28;20244;-57
2023/09/17 01:59:41;;;;;;;5.35;3.78;;;20.80;99.90;;;;;;5048142;28;20225;-57
2023/09/17 02:02:08;;;;;;;4.97;4.30;;;20.90;99.90;;;;;;5043007;28;20210;-56
2023/09/17 02:04:35;;;;;;;5.55;4.30;;;20.90;99.90;;;;;;5040010;28;20206;-57
2023/09/17 02:07:02;;;;;;;4.10;3.75;;;20.90;99.90;;;;;;5046702;28;20201;-57
2023/09/17 02:09:28;;;;;;;6.30;4.22;;;21.00;99.90;;;;;;5040980;28;20287;-57
2023/09/17 02:11:55;;;;;;;7.05;3.65;;;21.10;99.90;;;;;;5045385;28;20588;-57
2023/09/17 02:14:22;;;;;;;4.47;3.80;;;21.20;99.90;;;;;;5041392;28;20282;-58
2023/09/17 02:16:52;;;;;;;4.13;3.42;;;21.20;99.90;;;;;;5044335;28;20205;-57
2023/09/17 02:19:18;;;;;;;4.07;3.67;;;21.20;99.90;;;;;;5042318;28;20308;-57
2023/09/17 02:21:45;;;;;;;4.43;3.90;;;21.20;99.90;;;;;;5044144;28;20232;-58
2023/09/17 02:24:12;;;;;;;4.57;4.10;;;21.10;99.90;;;;;;5042994;28;20257;-57
2023/09/17 02:26:39;;;;;;;4.95;4.45;;;21.10;99.90;;;;;;5040343;28;20645;-57
2023/09/17 02:29:07;;;;;;;5.25;4.70;;;21.10;99.90;;;;;;5039941;28;20317;-58
2023/09/17 02:31:34;;;;;;;4.72;4.30;;;21.10;99.90;;;;;;5041842;28;20225;-58
2023/09/17 02:34:03;;;;;;;7.00;4.75;;;21.10;99.90;;;;;;5042694;28;20202;-58
2023/09/17 02:36:30;;;;;;;5.32;4.82;;;21.10;99.90;;;;;;5040392;28;20232;-57
2023/09/17 02:38:57;;;;;;;7.47;4.72;;;21.00;99.90;;;;;;5039414;28;20305;-58
2023/09/17 02:41:24;;;;;;;5.18;4.68;;;21.00;99.90;;;;;;5040571;28;20252;-58
2023/09/17 02:43:50;;;;;;;6.72;6.03;;;21.10;99.90;;;;;;5042551;28;20580;-57
2023/09/17 02:46:18;;;;;;;8.88;5.00;;;21.10;99.90;;;;;;5042210;28;20213;-57
2023/09/17 02:48:47;;;;;;;5.88;4.20;;;21.10;99.90;;;;;;5038962;28;20564;-58
2023/09/17 02:51:15;;;;;;;5.35;4.85;;;21.10;99.90;;;;;;5039392;28;20217;-57
2023/09/17 02:53:42;;;;;;;4.90;4.22;;;21.20;99.90;;;;;;5038960;28;20209;-57
2023/09/17 02:56:08;;;;;;;4.70;4.18;;;21.20;99.90;;;;;;5039440;28;20233;-57
2023/09/17 02:58:35;;;;;;;6.55;4.35;;;21.10;99.90;;;;;;5041719;28;20226;-56
2023/09/17 03:01:04;;;;;;;5.13;4.45;;;21.00;99.90;;;;;;5042552;28;20292;-58
2023/09/17 03:03:31;;;;;;;4.68;4.28;;;20.90;99.90;;;;;;5043165;28;20201;-57
2023/09/17 03:05:59;;;;;;;4.28;3.90;;;20.90;99.90;;;;;;5043484;28;20206;-57
2023/09/17 03:08:27;;;;;;;4.40;4.00;;;20.90;99.90;;;;;;5044400;28;20254;-57
2023/09/17 03:11:00;;;;;;;4.53;3.90;;;20.90;99.90;;;;;;5046370;28;20610;-58
2023/09/17 03:13:26;;;;;;;5.25;4.75;;;20.80;99.90;;;;;;5044506;28;20212;-58
2023/09/17 03:15:57;;;;;;;5.43;4.13;;;20.90;99.90;;;;;;5043134;28;20268;-57
2023/09/17 03:18:23;;;;;;;9.70;5.05;;;20.60;99.90;;;;;;5043846;28;20782;-58
2023/09/17 03:20:52;;;;;;;5.40;4.90;;;20.50;99.90;;;;;;5046419;28;20205;-57
2023/09/17 03:23:19;;;;;;;8.20;5.95;;;20.50;99.90;;;;;;5045301;28;20210;-59
2023/09/17 03:25:47;;;;;;;9.43;6.75;;;20.40;99.90;;;;;;5042826;28;20233;-57
2023/09/17 03:28:14;;;;;;;5.90;5.30;;;20.40;99.90;;;;;;5042759;28;20222;-58
2023/09/17 03:30:40;;;;;;;7.40;5.85;;;20.40;99.90;;;;;;5046443;28;20205;-59
2023/09/17 03:33:07;;;;;;;9.35;7.85;;;20.20;99.90;;;;;;5045997;28;20635;-56
2023/09/17 03:35:34;;;;;;;5.95;5.35;;;20.20;99.90;;;;;;5043014;28;20232;-58
2023/09/17 03:38:01;;;;;;;7.65;6.85;;;20.10;99.90;;;;;;5048536;28;20201;-58
2023/09/17 03:40:28;;;;;;;11.05;8.95;;;20.00;99.90;;;;;;5044296;28;20271;-58
2023/09/17 03:42:56;;;;;;;6.20;5.60;;;19.90;99.90;;;;;;5048328;28;20205;-57
2023/09/17 03:45:23;;;;;;;5.50;5.00;;;19.80;99.90;;;;;;5044868;28;20217;-57
2023/09/17 03:47:50;;;;;;;5.57;5.05;;;19.80;99.90;;;;;;5046954;28;20241;-57
2023/09/17 03:50:17;;;;;;;6.22;4.72;;;19.70;99.90;;;;;;5045491;28;20252;-56
2023/09/17 03:52:46;;;;;;;5.43;4.93;;;19.60;99.90;;;;;;5045989;28;20275;-57
2023/09/17 03:55:13;;;;;;;5.32;4.82;;;19.60;99.90;;;;;;5045318;28;20630;-56
2023/09/17 03:57:41;;;;;;;5.97;5.13;;;19.50;99.90;;;;;;5042029;28;20222;-58
2023/09/17 04:00:11;;;;;;;5.55;4.60;;;19.50;99.90;;;;;;5049183;28;20340;-57
2023/09/17 04:02:38;;;;;;;4.93;4.32;;;19.40;99.90;;;;;;5042247;28;20590;-58
2023/09/17 04:05:08;;;;;;;5.97;4.72;;;19.40;99.90;;;;;;5048376;28;20228;-58
2023/09/17 04:07:35;;;;;;;5.25;4.75;;;19.40;99.90;;;;;;5042900;28;20732;-57
2023/09/17 04:10:05;;;;;;;5.53;5.03;;;19.40;99.90;;;;;;5042030;28;20222;-57
2023/09/17 04:12:32;;;;;;;4.97;4.57;;;19.40;99.90;;;;;;5050034;28;20210;-56
2023/09/17 04:14:59;;;;;;;5.60;5.00;;;19.30;99.90;;;;;;5047065;28;20225;-58
2023/09/17 04:17:27;;;;;;;4.80;4.40;;;19.30;99.90;;;;;;5043848;28;20239;-57
2023/09/17 04:19:54;;;;;;;6.47;5.10;;;19.30;99.90;;;;;;5046727;28;20629;-58
2023/09/17 04:22:20;;;;;;;5.63;4.78;;;19.10;99.90;;;;;;5044580;28;20209;-57
2023/09/17 04:24:47;;;;;;;5.43;4.80;;;19.10;99.90;;;;;;5045380;28;20197;-57
2023/09/17 04:27:15;;;;;;;5.00;4.60;;;19.00;99.90;;;;;;5045002;28;20221;-57
2023/09/17 04:29:42;;;;;;;5.10;4.63;;;19.00;99.90;;;;;;5041338;28;20221;-58
2023/09/17 04:32:08;;;;;;;5.65;4.85;;;18.90;99.90;;;;;;5048231;28;20206;-58
2023/09/17 04:34:37;;;;;;;5.40;4.53;;;18.90;99.90;;;;;;5041729;28;20214;-58
2023/09/17 04:37:04;;;;;;;5.80;4.90;;;18.80;99.90;;;;;;5047893;28;20206;-57
2023/09/17 04:39:31;;;;;;;6.32;4.80;;;18.80;99.90;;;;;;5043449;28;20834;-57
2023/09/17 04:41:57;;;;;;;6.22;4.95;;;18.70;99.90;;;;;;5046653;28;20201;-58
2023/09/17 04:44:24;;;;;;;8.02;4.65;;;18.70;99.90;;;;;;5043343;28;20619;-57
2023/09/17 04:46:51;;;;;;;5.70;5.10;;;18.70;99.90;;;;;;5045762;28;20220;-58
2023/09/17 04:49:18;;;;;;;6.95;5.05;;;18.60;99.90;;;;;;5044374;28;20240;-57
2023/09/17 04:51:46;;;;;;;6.15;5.15;;;18.50;99.90;;;;;;5041103;28;20207;-57
2023/09/17 04:54:12;;;;;;;6.35;4.60;;;18.50;99.90;;;;;;5040883;28;20214;-58
2023/09/17 04:56:39;;;;;;;5.28;4.65;;;18.50;99.90;;;;;;5049011;28;20223;-58
2023/09/17 04:59:06;;;;;;;5.55;5.03;;;18.50;99.90;;;;;;5047423;28;20248;-57
2023/09/17 05:01:33;;;;;;;4.85;4.45;;;18.50;99.90;;;;;;5042104;28;20209;-57
2023/09/17 05:03:59;;;;;;;5.50;4.95;;;18.50;99.90;;;;;;5046239;28;20205;-58
2023/09/17 05:06:26;;;;;;;10.20;8.25;;;18.60;99.90;;;;;;5043069;28;20667;-58
2023/09/17 05:08:54;;;;;;;5.07;4.60;;;18.60;99.90;;;;;;5045779;28;20229;-57
2023/09/17 05:11:21;;;;;;;6.63;4.70;;;18.70;99.90;;;;;;5043654;28;20212;-57
2023/09/17 05:13:47;;;;;;;5.57;5.07;;;18.70;99.90;;;;;;5044649;28;20581;-57
2023/09/17 05:16:14;;;;;;;6.13;5.45;;;18.70;99.90;;;;;;5044295;28;20221;-57
2023/09/17 05:18:41;;;;;;;5.47;4.97;;;18.80;99.90;;;;;;5040774;28;20271;-56
2023/09/17 05:21:08;;;;;;;5.28;4.53;;;18.90;99.90;;;;;;5047271;28;20206;-57
2023/09/17 05:23:34;;;;;;;5.78;5.18;;;19.00;99.90;;;;;;5041372;28;20216;-59
2023/09/17 05:26:02;;;;;;;5.07;4.40;;;19.10;99.90;;;;;;5045394;28;20209;-58
2023/09/17 05:28:29;;;;;;;5.30;4.40;;;19.30;99.90;;;;;;5042109;28;20236;-58
2023/09/17 05:30:57;;;;;;;6.53;4.75;;;19.40;99.90;;;;;;5045588;28;20208;-58
2023/09/17 05:33:23;;;;;;;6.97;4.95;;;19.40;99.90;;;;;;5042688;28;20285;-58
2023/09/17 05:35:56;;;;;;;6.47;4.72;;;19.40;99.90;;;;;;5044574;28;20218;-58
2023/09/17 05:38:23;;;;;;;5.18;4.57;;;19.50;99.90;;;;;;5043129;28;20312;-59
2023/09/17 05:40:49;;;;;;;6.75;5.05;;;19.60;99.90;;;;;;5044135;28;20209;-57
2023/09/17 05:43:17;;;;;;;5.70;5.10;;;19.70;99.90;;;;;;5043294;28;20214;-58
2023/09/17 05:45:44;;;;;;;6.35;5.10;;;19.80;99.90;;;;;;5040139;28;20231;-58
2023/09/17 05:48:11;;;;;;;7.05;5.25;;;19.80;99.90;;;;;;5046775;28;20229;-56
2023/09/17 05:50:37;;;;;;;6.15;5.05;;;19.90;99.90;;;;;;5040840;28;20210;-56
2023/09/17 05:53:04;;;;;;;4.82;4.43;;;19.90;99.90;;;;;;5045995;28;20518;-57
2023/09/17 05:55:31;;;;;;;5.32;4.82;;;20.00;99.90;;;;;;5041030;28;20217;-58
2023/09/17 05:57:58;;;;;;;5.90;5.30;;;20.10;99.90;;;;;;5045112;28;20263;-58
2023/09/17 06:00:27;;;;;;;7.18;4.93;;;20.10;99.90;;;;;;5042263;28;20705;-58
2023/09/17 06:02:54;;;;;;;5.93;4.93;;;20.20;99.90;;;;;;5044330;28;20202;-57
2023/09/17 06:05:21;;;;;;;5.20;4.63;;;20.70;99.90;;;;;;5042771;28;20201;-57
2023/09/17 06:07:48;;;;;;;5.75;4.40;;;21.50;99.90;;;;;;5043341;28;20231;-57
2023/09/17 06:10:14;;;;;;;4.53;3.90;;;22.30;99.90;;;;;;5042802;28;20221;-57
2023/09/17 06:12:41;;;;;;;4.32;3.88;;;23.30;99.90;;;;;;5040001;28;20206;-56
2023/09/17 06:15:08;;;;;;;4.25;3.75;;;24.30;99.90;;;;;;5045810;28;20202;-57
2023/09/17 06:17:36;;;;;;;4.05;3.38;;;25.50;99.90;;;;;;5040889;28;20205;-57
2023/09/17 06:20:04;;;;;;;4.05;3.67;;;26.30;99.90;;;;;;5045168;28;20220;-57
2023/09/17 06:22:31;;;;;;;3.58;3.28;;;26.80;99.90;;;;;;5041146;28;20213;-58
2023/09/17 06:24:57;;;;;;;3.53;3.17;;;27.50;99.90;;;;;;5043996;28;20209;-57
2023/09/17 06:27:24;;;;;;;4.22;3.28;;;28.20;99.90;;;;;;5042418;28;20206;-57
2023/09/17 06:29:51;;;;;;;4.18;3.42;;;28.80;99.90;;;;;;5043556;28;20264;-57
2023/09/17 06:32:18;;;;;;;4.13;3.38;;;29.00;99.90;;;;;;5042680;28;20678;-56
2023/09/17 06:34:46;;;;;;;4.10;3.70;;;28.80;99.90;;;;;;5039153;28;20213;-58
2023/09/17 06:37:12;;;;;;;4.13;3.70;;;28.20;99.90;;;;;;5050430;28;20221;-58
2023/09/17 06:39:39;;;;;;;3.90;3.55;;;27.40;99.90;;;;;;5046670;28;20224;-58
2023/09/17 06:42:06;;;;;;;5.15;3.72;;;26.90;99.90;;;;;;5051826;28;20212;-57
2023/09/17 06:44:33;;;;;;;5.68;4.03;;;26.90;99.90;;;;;;5047262;28;20209;-57
2023/09/17 06:47:00;;;;;;;4.10;3.72;;;27.20;99.90;;;;;;5052000;28;20204;-58
2023/09/17 06:49:26;;;;;;;4.18;3.78;;;27.00;99.90;;;;;;5048942;28;20773;-58
2023/09/17 06:51:55;;;;;;;5.50;4.05;;;26.60;99.90;;;;;;5050463;28;20212;-57
2023/09/17 06:54:22;;;;;;;4.18;3.83;;;25.90;99.90;;;;;;5049059;28;20232;-57
2023/09/17 06:56:49;;;;;;;7.15;4.13;;;25.40;99.90;;;;;;5049225;28;20220;-56
2023/09/17 06:59:15;;;;;;;4.20;3.80;;;24.90;99.90;;;;;;5049025;28;20240;-57
2023/09/17 07:01:45;;;;;;;4.93;3.60;;;25.00;99.90;;;;;;5046404;28;20572;-57
2023/09/17 07:04:11;;;;;;;4.65;3.45;;;25.50;99.90;;;;;;5052350;28;20213;-57
2023/09/17 07:06:38;;;;;;;5.07;4.00;;;26.50;99.90;;;;;;5049061;28;20202;-56
2023/09/17 07:09:07;;;;;;;3.95;3.50;;;27.00;99.90;;;;;;5048968;28;20221;-56
2023/09/17 07:11:34;;;;;;;4.20;3.80;;;27.60;99.90;;;;;;5047346;28;20205;-55
2023/09/17 07:14:04;;;;;;;6.28;3.67;;;28.50;99.90;;;;;;5050588;28;20202;-56
2023/09/17 07:16:31;;;;;;;3.83;2.92;;;29.30;99.90;;;;;;5047669;28;20213;-56
2023/09/17 07:18:58;;;;;;;3.08;2.78;;;29.80;99.90;;;;;;5050705;28;20276;-57
2023/09/17 07:21:24;;;;;;;5.80;3.58;;;30.20;99.90;;;;;;5048520;28;20205;-55
2023/09/17 07:23:52;;;;;;;4.15;3.20;;;30.30;99.90;;;;;;5049089;28;20212;-56
2023/09/17 07:26:20;;;;;;;6.22;3.30;;;30.20;99.90;;;;;;5048818;28;20247;-57
2023/09/17 07:28:47;;;;;;;4.10;3.15;;;30.10;99.90;;;;;;5045045;28;20226;-57
2023/09/17 07:31:14;;;;;;;4.15;3.50;;;30.20;99.90;;;;;;5052410;28;20237;-55
2023/09/17 07:33:42;;;;;;;2.90;2.70;;;30.40;99.90;;;;;;5045817;28;20206;-57
2023/09/17 07:36:09;;;;;;;3.47;3.05;;;30.40;99.90;;;;;;5051495;28;20647;-56
2023/09/17 07:38:35;;;;;;;4.97;3.38;;;30.20;99.90;;;;;;5046841;28;20248;-57
2023/09/17 07:41:02;;;;;;;5.15;3.60;;;29.50;99.90;;;;;;5050536;28;20217;-56
2023/09/17 07:43:30;;;;;;;4.03;3.22;;;28.70;99.90;;;;;;5047517;28;20592;-55
2023/09/17 07:45:57;;;;;;;4.00;3.47;;;27.80;99.90;;;;;;5049689;28;20219;-55
2023/09/17 07:48:24;;;;;;;3.75;3.13;;;27.00;99.90;;;;;;5069696;22;20236;-54
2023/09/17 07:50:56;;;;;;;3.58;3.28;;;26.50;99.90;;;;;;5065557;28;20236;-55
2023/09/17 07:53:23;;;;;;;3.38;3.08;;;26.10;99.90;;;;;;5065023;28;20209;-56
2023/09/17 07:55:50;;;;;;;3.97;3.63;;;26.00;99.90;;;;;;5053399;28;20670;-55
2023/09/17 07:58:16;;;;;;;5.72;3.58;;;25.60;99.90;;;;;;5060731;28;20216;-55
2023/09/17 08:00:45;;;;;;;4.53;3.28;;;25.60;99.90;;;;;;5044130;28;20223;-55
2023/09/17 08:03:13;;;;;;;4.22;3.70;;;25.40;99.90;;;;;;5044882;28;20216;-54
2023/09/17 08:05:40;;;;;;;4.18;3.15;;;25.30;99.90;;;;;;5042418;28;20599;-54
2023/09/17 08:08:07;;;;;;;3.80;3.40;;;25.20;99.90;;;;;;5041430;28;20202;-56
2023/09/17 08:10:34;;;;;;;5.10;4.13;;;25.00;99.90;;;;;;5042769;28;20262;-56
2023/09/17 08:13:00;;;;;;;6.85;3.97;;;25.00;99.90;;;;;;5044440;28;20212;-56
2023/09/17 08:15:27;;;;;;;7.50;3.42;;;25.00;99.90;;;;;;5044050;28;20217;-56
2023/09/17 08:17:55;;;;;;;4.03;3.60;;;25.00;99.90;;;;;;5041230;28;20229;-55
2023/09/17 08:20:22;;;;;;;5.00;3.60;;;25.10;99.90;;;;;;5041105;28;20226;-55
2023/09/17 08:22:50;;;;;;;5.45;3.65;;;25.40;99.90;;;;;;5032978;28;20202;-55
2023/09/17 08:25:17;;;;;;;3.95;3.25;;;25.70;99.90;;;;;;5041006;28;20275;-56
2023/09/17 08:27:45;;;;;;;6.10;3.20;;;25.90;99.90;;;;;;5043719;28;20232;-56
2023/09/17 08:30:12;;;;;;;3.72;2.80;;;26.10;99.90;;;;;;5044688;28;20248;-56
2023/09/17 08:32:39;;;;;;;3.00;2.70;;;26.40;99.90;;;;;;5042360;28;20327;-56
2023/09/17 08:35:08;;;;;;;4.25;2.85;;;26.60;99.90;;;;;;5040723;28;20212;-56
2023/09/17 08:37:35;;;;;;;3.67;3.33;;;26.80;99.90;;;;;;5042251;28;20233;-55
2023/09/17 08:40:05;;;;;;;4.70;3.33;;;26.90;99.90;;;;;;5044245;28;20308;-56
2023/09/17 08:42:32;;;;;;;3.65;3.35;;;26.90;99.90;;;;;;5043633;28;20663;-55
2023/09/17 08:45:00;;;;;;;5.53;3.13;;;26.80;99.90;;;;;;5040924;28;20240;-55
2023/09/17 08:47:27;;;;;;;3.63;3.10;;;26.60;99.90;;;;;;5040897;28;20737;-56
2023/09/17 08:49:53;;;;;;;5.18;2.75;;;26.50;99.90;;;;;;5044143;28;20231;-56
2023/09/17 08:52:22;;;;;;;4.05;3.00;;;26.30;99.90;;;;;;5044453;28;20217;-56
2023/09/17 08:54:51;;;;;;;4.32;2.90;;;26.20;99.90;;;;;;5040398;28;20205;-55
2023/09/17 08:57:23;;;;;;;3.25;2.90;;;26.00;99.90;;;;;;5041004;28;20229;-54
2023/09/17 08:59:53;;;;;;;3.53;2.85;;;26.00;99.90;;;;;;5042638;28;20225;-54
2023/09/17 09:02:22;;;;;;;3.85;2.65;;;26.00;99.90;;;;;;5044012;28;20205;-56
2023/09/17 09:04:50;;;;;;;3.35;2.72;;;26.00;99.90;;;;;;5040461;28;20247;-54
2023/09/17 09:07:20;;;;;;;5.15;2.85;;;26.00;99.90;;;;;;5040765;28;20205;-54
2023/09/17 09:09:50;;;;;;;5.85;2.58;;;26.10;99.90;;;;;;5043355;28;20229;-55
2023/09/17 09:12:18;;;;;;;3.42;2.60;;;26.20;99.90;;;;;;5044052;28;20225;-55
2023/09/17 09:14:45;;;;;;;2.88;2.65;;;26.30;99.90;;;;;;5041003;28;20672;-55
2023/09/17 09:17:13;;;;;;;3.15;2.50;;;26.50;99.90;;;;;;5040167;28;20229;-54
2023/09/17 09:19:40;;;;;;;4.82;2.83;;;26.60;99.90;;;;;;5041945;28;20272;-54
2023/09/17 09:22:06;;;;;;;6.85;2.78;;;26.70;99.90;;;;;;5044080;28;20210;-56
2023/09/17 09:24:42;;;;;;;5.13;2.30;;;26.80;99.90;;;;;;5042304;28;20679;-55
2023/09/17 09:27:10;;;;;;;4.32;2.47;;;26.80;99.90;;;;;;5040510;28;20234;-56
2023/09/17 09:29:37;;;;;;;4.65;2.40;;;26.80;99.90;;;;;;5041909;28;20265;-56
2023/09/17 09:32:04;;;;;;;7.85;2.95;;;26.90;99.90;;;;;;5043508;28;20689;-55
2023/09/17 09:34:31;;;;;;;3.22;2.17;;;26.90;99.90;;;;;;5042384;28;20206;-54
2023/09/17 09:36:58;;;;;;;2.55;2.03;;;26.90;99.90;;;;;;5040118;28;20580;-54
2023/09/17 09:39:24;;;;;;;4.07;2.55;;;27.00;99.90;;;;;;5040018;28;20253;-54
2023/09/17 09:41:51;;;;;;;4.00;2.28;;;27.10;99.90;;;;;;5043414;28;20202;-55
2023/09/17 09:44:19;;;;;;;3.65;2.30;;;27.20;99.90;;;;;;5042981;28;20213;-54
2023/09/17 09:46:46;;;;;;;4.32;2.22;;;27.40;99.90;;;;;;5040359;28;20209;-55
2023/09/17 09:49:13;;;;;;;7.03;2.58;;;27.50;99.90;;;;;;5039745;28;20742;-54
2023/09/17 09:51:40;;;;;;;3.85;2.22;;;27.70;99.90;;;;;;5041910;28;20210;-55
2023/09/17 09:54:07;;;;;;;3.75;2.00;;;27.70;99.90;;;;;;5042794;28;20206;-58
2023/09/17 09:56:34;;;;;;;3.60;2.47;;;27.70;99.90;;;;;;5041970;28;20212;-55
2023/09/17 09:59:01;;;;;;;4.32;2.28;;;27.90;99.90;;;;;;5039591;28;20720;-54
2023/09/17 10:01:30;;;;;;;4.75;2.35;;;28.00;99.90;;;;;;5039881;28;20206;-58
2023/09/17 10:03:58;;;;;;;3.60;2.33;;;28.10;99.90;;;;;;5042834;28;20663;-55
2023/09/17 10:06:25;;;;;;;6.05;2.42;;;28.20;99.90;;;;;;5043285;28;20237;-55
2023/09/17 10:08:53;;;;;;;6.78;2.40;;;28.30;99.90;;;;;;5039476;28;20229;-54
2023/09/17 10:11:20;;;;;;;7.70;2.38;;;28.40;99.90;;;;;;5039788;28;20244;-59
2023/09/17 10:13:46;;;;;;;5.20;2.20;;;28.40;99.90;;;;;;5041958;28;20214;-55
2023/09/17 10:16:14;;;;;;;5.43;2.30;;;28.40;99.90;;;;;;5042630;28;20213;-54
2023/09/17 10:18:44;;;;;;;2.95;1.88;;;28.50;99.90;;;;;;5040931;28;20264;-54
2023/09/17 10:21:13;;;;;;;5.75;2.10;;;28.70;99.90;;;;;;5039521;28;20206;-55
2023/09/17 10:23:40;;;;;;;3.53;1.90;;;28.70;99.90;;;;;;5040621;28;20206;-55
2023/09/17 10:26:10;;;;;;;4.60;2.20;;;28.80;99.90;;;;;;5043007;28;20259;-55
2023/09/17 10:28:38;;;;;;;4.75;2.20;;;28.80;99.90;;;;;;5041238;28;20218;-56
2023/09/17 10:31:08;;;;;;;4.65;2.17;;;28.90;99.90;;;;;;5039629;28;20202;-55
2023/09/17 10:33:36;;;;;;;7.07;2.30;;;29.00;99.90;;;;;;5039706;28;20230;-55
2023/09/17 10:36:07;;;;;;;4.10;2.00;;;29.10;99.90;;;;;;5042919;28;20197;-56
2023/09/17 10:38:35;;;;;;;4.63;2.10;;;29.30;99.90;;;;;;5041902;28;20287;-55
2023/09/17 10:41:05;;;;;;;6.97;2.17;;;29.50;99.90;;;;;;5039171;28;20206;-56
2023/09/17 10:43:34;;;;;;;7.07;2.20;;;29.50;99.90;;;;;;5039897;28;20214;-55
2023/09/17 10:46:03;;;;;;;4.63;1.88;;;29.60;99.90;;;;;;5043320;28;20213;-55
2023/09/17 10:48:32;;;;;;;5.93;2.03;;;29.50;99.90;;;;;;5042258;28;20209;-55
2023/09/17 10:51:00;;;;;;;5.90;2.42;;;29.40;99.90;;;;;;5039616;28;20293;-55
2023/09/17 10:53:28;;;;;;;6.60;2.08;;;29.30;99.90;;;;;;5039321;28;20214;-57
2023/09/17 10:56:01;;;;;;;4.40;2.15;;;29.30;99.90;;;;;;5039341;28;20617;-56
2023/09/17 10:58:37;;;;;;;5.35;2.30;;;29.30;99.90;;;;;;5039389;28;20308;-55
2023/09/17 11:01:06;;;;;;;6.85;2.35;;;29.50;99.90;;;;;;5042520;28;20208;-55
2023/09/17 11:03:34;;;;;;;4.57;1.95;;;29.70;99.90;;;;;;5041611;28;20227;-56
2023/09/17 11:06:02;;;;;;;9.73;2.30;;;29.80;99.90;;;;;;5039382;28;20206;-56
2023/09/17 11:08:31;;;;;;;7.43;2.08;;;29.80;99.90;;;;;;5039225;28;20293;-59
2023/09/17 11:10:57;;;;;;;4.78;2.17;;;29.90;99.90;;;;;;5042645;28;20652;-56
2023/09/17 11:13:25;;;;;;;5.82;2.08;;;29.90;99.30;;;;;;5042775;28;20647;-55
2023/09/17 11:15:56;;;;;;;5.43;2.20;;;30.00;99.30;;;;;;5040114;28;20206;-55
2023/09/17 11:18:22;;;;;;;6.57;2.10;;;30.10;99.30;;;;;;5039636;28;20226;-56
2023/09/17 11:21:00;;;;;;;9.48;2.63;;;30.20;98.80;;;;;;5043309;28;20207;-55
2023/09/17 11:23:39;;;;;;;6.43;2.17;;;30.30;98.40;;;;;;5043126;28;20288;-54
2023/09/17 11:26:06;;;;;;;7.50;2.20;;;30.40;98.10;;;;;;5035849;28;20213;-54
2023/09/17 11:28:38;;;;;;;5.57;2.13;;;30.60;97.60;;;;;;5042520;28;20226;-53
2023/09/17 11:31:09;;;;;;;6.38;2.47;;;30.60;97.60;;;;;;5045771;28;20208;-58
2023/09/17 11:33:37;;;;;;;5.45;2.20;;;30.80;96.70;;;;;;5045310;28;20206;-55
2023/09/17 11:36:05;;;;;;;6.55;2.30;;;30.90;96.50;;;;;;5042610;28;20632;-56
2023/09/17 11:38:32;;;;;;;6.13;2.17;;;30.90;96.10;;;;;;5042438;28;20256;-56
2023/09/17 11:41:09;;;;;;;4.95;2.03;;;31.10;95.80;;;;;;5045994;28;20699;-56
2023/09/17 11:43:37;;;;;;;6.65;2.40;;;31.10;95.80;;;;;;5044960;28;20217;-55
2023/09/17 11:46:07;;;;;;;6.03;2.30;;;31.20;95.60;;;;;;5042528;28;20209;-55
2023/09/17 11:48:35;;;;;;;7.35;3.53;;;31.10;95.60;;;;;;5042577;28;20234;-55
2023/09/17 11:51:24;;;;;;;7.88;2.55;;;31.00;95.30;;;;;;5045798;28;20225;-56
2023/09/17 11:53:56;;;;;;;5.47;1.90;;;31.10;95.10;;;;;;5042457;28;20224;-55
2023/09/17 11:56:26;;;;;;;2.92;1.90;;;31.10;95.20;;;;;;5042300;28;20210;-55
2023/09/17 11:59:04;;;;;;;3.72;1.70;;;31.20;95.00;;;;;;5044933;28;20224;-56
2023/09/17 12:01:34;;;;;;;9.18;2.35;;;31.10;94.80;;;;;;5045304;28;20595;-57
2023/09/17 12:04:07;;;;;;;6.40;2.33;;;31.00;95.30;;;;;;5041746;28;20206;-55
2023/09/17 12:06:37;;;;;;;7.30;1.80;;;31.00;95.10;;;;;;5042207;28;20301;-56
2023/09/17 12:09:10;;;;;;;7.70;2.10;;;31.00;94.40;;;;;;5045525;28;20218;-55
2023/09/17 12:11:39;;;;;;;6.68;2.10;;;31.10;95.00;;;;;;5044455;28;20224;-55
2023/09/17 12:14:06;;;;;;;4.97;2.28;;;31.10;94.40;;;;;;5041523;28;20202;-54
2023/09/17 12:16:33;;;;;;;5.90;1.77;;;31.20;93.70;;;;;;5042020;28;20202;-60
2023/09/17 12:19:00;;;;;;;8.18;2.17;;;31.20;93.50;;;;;;5044952;28;20644;-55
2023/09/17 12:21:27;;;;;;;4.22;1.90;;;31.20;93.90;;;;;;5045031;28;20214;-55
2023/09/17 12:23:57;;;;;;;10.38;6.40;;;31.40;93.50;;;;;;5041567;28;20202;-56
2023/09/17 12:26:30;;;;;;;6.35;3.97;;;31.60;93.00;;;;;;5041562;28;20232;-56
2023/09/17 12:28:58;;;;;;;5.40;2.10;;;31.80;93.10;;;;;;5033080;28;20218;-55
2023/09/17 12:31:26;;;;;;;5.32;2.05;;;31.90;92.60;;;;;;5041225;28;20352;-55
2023/09/17 12:33:52;;;;;;;3.92;1.90;;;31.90;92.70;;;;;;5043968;28;20202;-58
2023/09/17 12:36:19;;;;;;;7.30;2.05;;;32.10;92.40;;;;;;5045302;28;20213;-57
2023/09/17 12:38:46;;;;;;;5.32;2.08;;;32.10;92.20;;;;;;5042544;28;20703;-56
2023/09/17 12:41:13;;;;;;;4.20;2.10;;;32.30;92.20;;;;;;5041335;28;20214;-56
2023/09/17 12:43:39;;;;;;;5.78;1.80;;;32.40;92.10;;;;;;5042081;28;20568;-55
2023/09/17 12:46:07;;;;;;;5.43;1.95;;;32.40;91.60;;;;;;5044052;28;20202;-56
2023/09/17 12:48:35;;;;;;;6.13;1.75;;;32.40;91.60;;;;;;5044012;28;20267;-54